KSW weather

Kiryat Shmona Airport
Kiryat Shmona, Northern District, Israel

Public forecast

Using degrees Celsius for public forecast. Weather courtesy of forecast.io.

METAR (pilot weather report)

Report is more than 6 hours old.

Closest report is Ben Ya'akov Airport, 14.2 nm (26.3 km) S. Retrieved 2019/08/25 14:50 UTC (8 hours ago):

LLIB 251450Z 33011KT 9999 FEW025 33/17 Q1009

TAF (pilot weather forecast)

Forecast is more than 6 hours old.

Closest forecast is Ben Ya'akov Airport, 14.2 nm (26.3 km) S. Retrieved 2019/08/25 12:00 UTC (11 hours ago):

TAF LLIB 251119Z 2512/2612 33013KT CAVOK BECMG 2517/2519 VRB04KT 8000 FEW015 PROB40 2523/2605 24005KT 6000 SCT010 BECMG 2606/2608 33013KT CAVOK TX36/2513Z TN21/2603Z